createdAt,value
2018-07-20T00:03:03.209Z,96770.20
2018-07-20T00:07:58.150Z,96763.67
2018-07-20T00:12:52.802Z,96764.58
2018-07-20T00:17:47.433Z,96756.57
2018-07-20T00:22:42.102Z,96752.91
2018-07-20T00:27:36.859Z,96750.45
2018-07-20T00:32:31.498Z,96741.50
2018-07-20T00:37:26.245Z,96743.95
2018-07-20T00:42:20.869Z,96740.95
2018-07-20T00:47:15.500Z,96744.95
2018-07-20T00:52:10.106Z,96738.95
2018-07-20T00:57:04.547Z,96739.52
2018-07-20T01:01:59.297Z,96737.82
2018-07-20T01:06:54.001Z,96739.08
2018-07-20T01:11:48.862Z,96729.53
2018-07-20T01:16:43.449Z,96726.25
2018-07-20T01:21:38.421Z,96724.36
2018-07-20T01:26:33.068Z,96719.66
2018-07-20T01:31:28.231Z,96724.50
2018-07-20T01:36:22.952Z,96724.61
2018-07-20T01:41:17.516Z,96723.93
2018-07-20T01:46:12.302Z,96721.07
2018-07-20T01:51:07.022Z,96725.36
2018-07-20T01:56:01.682Z,96727.59
2018-07-20T02:00:56.406Z,96721.23
2018-07-20T02:05:50.963Z,96724.50
2018-07-20T02:10:45.617Z,96722.94
2018-07-20T02:15:40.342Z,96721.18
2018-07-20T02:20:35.438Z,96712.73
2018-07-20T02:25:30.228Z,96707.66
2018-07-20T02:30:24.973Z,96707.92
2018-07-20T02:35:19.650Z,96705.61
2018-07-20T02:40:14.321Z,96711.52
2018-07-20T02:45:08.926Z,96708.09
2018-07-20T02:50:03.545Z,96711.64
2018-07-20T02:54:57.779Z,96714.84
2018-07-20T02:59:52.421Z,96714.38
2018-07-20T03:04:47.092Z,96715.94
2018-07-20T03:09:41.821Z,96723.16
2018-07-20T03:14:36.698Z,96717.84
2018-07-20T03:19:31.951Z,96723.26
2018-07-20T03:24:26.638Z,96726.24
2018-07-20T03:29:21.248Z,96723.94
2018-07-20T03:34:15.953Z,96730.06
2018-07-20T03:39:11.303Z,96736.45
2018-07-20T03:44:06.385Z,96725.32
2018-07-20T03:49:01.153Z,96718.41
2018-07-20T03:53:56.065Z,96715.47
2018-07-20T03:58:50.793Z,96716.75
2018-07-20T04:03:45.863Z,96716.95
2018-07-20T04:08:40.473Z,96714.75
2018-07-20T04:13:35.069Z,96721.78
2018-07-20T04:18:29.685Z,96712.06
2018-07-20T04:23:24.600Z,96711.84
2018-07-20T04:28:19.105Z,96707.34
2018-07-20T04:33:13.632Z,96707.65
2018-07-20T04:38:08.336Z,96712.78
2018-07-20T04:43:02.989Z,96714.97
2018-07-20T04:47:58.250Z,96713.92
2018-07-20T04:52:52.945Z,96717.61
2018-07-20T04:57:47.692Z,96717.59
2018-07-20T05:02:42.340Z,96718.34
2018-07-20T05:07:37.783Z,96727.36
2018-07-20T05:12:32.843Z,96725.70
2018-07-20T05:17:27.503Z,96726.52
2018-07-20T05:22:22.398Z,96716.73
2018-07-20T05:27:16.860Z,96717.93
2018-07-20T05:32:12.275Z,96704.63
2018-07-20T05:37:07.065Z,96700.48
2018-07-20T05:42:01.484Z,96695.78
2018-07-20T05:46:55.884Z,96699.73
2018-07-20T05:51:50.576Z,96689.33
2018-07-20T05:56:44.973Z,96684.13
2018-07-20T06:01:39.379Z,96687.20
2018-07-20T06:06:33.820Z,96689.48
2018-07-20T06:11:28.284Z,96688.62
2018-07-20T06:16:22.712Z,96692.30
2018-07-20T06:21:17.150Z,96682.27
2018-07-20T06:26:11.592Z,96683.91
2018-07-20T06:31:06.066Z,96686.14
2018-07-20T06:36:00.531Z,96689.12
2018-07-20T06:40:55.009Z,96702.15
2018-07-20T06:45:49.540Z,96693.04
2018-07-20T06:50:44.242Z,96700.57
2018-07-20T06:55:38.765Z,96704.59
2018-07-20T07:00:33.233Z,96706.76
2018-07-20T07:05:27.736Z,96692.11
2018-07-20T07:10:22.685Z,96692.70
2018-07-20T07:15:17.399Z,96703.71
2018-07-20T07:20:29.546Z,96702.14
2018-07-20T07:25:25.092Z,96707.55
2018-07-20T07:30:19.806Z,96701.13
2018-07-20T07:35:14.312Z,96706.81
2018-07-20T07:40:09.004Z,96698.52
2018-07-20T07:45:03.600Z,96702.13
2018-07-20T07:49:58.263Z,96705.09
2018-07-20T07:54:52.707Z,96702.60
2018-07-20T07:59:47.324Z,96704.17
2018-07-20T08:04:41.821Z,96694.06
2018-07-20T08:09:36.733Z,96697.89
2018-07-20T08:14:31.742Z,96690.52
2018-07-20T08:19:26.646Z,96686.83
2018-07-20T08:24:20.835Z,96690.21
2018-07-20T08:29:15.288Z,96690.88
2018-07-20T08:34:09.727Z,96685.18
2018-07-20T08:39:15.983Z,96692.09
2018-07-20T08:44:10.647Z,96694.90
2018-07-20T08:49:05.308Z,96688.64
2018-07-20T08:53:59.765Z,96681.40
2018-07-20T08:58:54.786Z,96677.13
2018-07-20T09:03:49.205Z,96680.09
2018-07-20T09:08:52.727Z,96677.50
2018-07-20T09:13:59.215Z,96677.34
2018-07-20T09:19:06.963Z,96667.59
2018-07-20T09:24:14.066Z,96680.42
2018-07-20T09:29:08.954Z,96673.69
2018-07-20T09:34:03.535Z,96672.57
2018-07-20T09:38:58.192Z,96668.92
2018-07-20T09:43:52.885Z,96657.65
2018-07-20T09:48:48.307Z,96660.86
2018-07-20T09:53:43.895Z,96653.28
2018-07-20T09:58:38.630Z,96658.16
2018-07-20T10:03:33.544Z,96650.64
2018-07-20T10:08:28.293Z,96638.84
2018-07-20T10:13:24.011Z,96639.47
2018-07-20T10:18:19.361Z,96643.63
2018-07-20T10:23:14.010Z,96629.12
2018-07-20T10:28:08.777Z,96623.38
2018-07-20T10:33:03.880Z,96614.69
2018-07-20T10:37:59.738Z,96615.36
2018-07-20T10:42:55.641Z,96604.84
2018-07-20T10:48:15.244Z,96595.77
2018-07-20T10:53:12.049Z,96598.65
2018-07-20T10:58:07.303Z,96587.58
2018-07-20T11:03:04.002Z,96585.67
2018-07-20T11:08:06.122Z,96580.90
2018-07-20T11:13:02.913Z,96575.34
2018-07-20T11:17:57.789Z,96572.59
2018-07-20T11:22:52.841Z,96563.69
2018-07-20T11:27:48.706Z,96555.31
2018-07-20T11:32:43.811Z,96551.95
2018-07-20T11:37:39.933Z,96545.23
2018-07-20T11:42:36.481Z,96534.45
2018-07-20T11:47:31.289Z,96533.58
2018-07-20T11:52:26.483Z,96532.44
2018-07-20T11:57:21.220Z,96517.58
2018-07-20T12:02:16.200Z,96514.32
2018-07-20T12:07:10.776Z,96506.70
2018-07-20T12:12:06.629Z,96496.21
2018-07-20T12:17:01.173Z,96488.80
2018-07-20T12:21:56.269Z,96481.11
2018-07-20T12:26:51.307Z,96481.24
2018-07-20T12:31:45.908Z,96486.28
2018-07-20T12:36:40.718Z,96474.23
2018-07-20T12:41:35.231Z,96472.30
2018-07-20T12:46:29.926Z,96479.75
2018-07-20T12:51:29.736Z,96487.61
2018-07-20T12:56:26.624Z,96480.39
2018-07-20T13:01:20.968Z,96464.78
2018-07-20T13:06:15.883Z,96464.14
2018-07-20T13:11:10.801Z,96470.97
2018-07-20T13:16:05.754Z,96472.16
2018-07-20T13:21:00.528Z,96484.23
2018-07-20T13:25:54.980Z,96483.61
2018-07-20T13:30:49.600Z,96480.37
2018-07-20T13:35:44.116Z,96486.29
2018-07-20T13:40:38.528Z,96480.22
2018-07-20T13:45:33.031Z,96479.03
2018-07-20T13:50:28.176Z,96469.06
2018-07-20T13:55:22.758Z,96466.17
2018-07-20T14:00:17.308Z,96457.23
2018-07-20T14:05:11.852Z,96454.80
2018-07-20T14:10:06.917Z,96448.25
2018-07-20T14:15:01.365Z,96439.30
2018-07-20T14:19:55.793Z,96437.08
2018-07-20T14:24:50.373Z,96447.48
2018-07-20T14:29:44.788Z,96434.39
2018-07-20T14:34:39.360Z,96433.64
2018-07-20T14:39:33.873Z,96436.60
2018-07-20T14:44:28.304Z,96439.64
2018-07-20T14:49:22.778Z,96435.16
2018-07-20T14:54:17.220Z,96443.86
2018-07-20T14:59:11.855Z,96440.52
2018-07-20T15:04:06.575Z,96429.70
2018-07-20T15:09:01.438Z,96423.77
2018-07-20T15:13:55.868Z,96432.78
2018-07-20T15:18:50.415Z,96445.72
2018-07-20T15:23:44.934Z,96439.03
2018-07-20T15:28:39.511Z,96441.54
2018-07-20T15:33:34.121Z,96447.77
2018-07-20T15:38:28.734Z,96457.84
2018-07-20T15:43:23.342Z,96458.77
2018-07-20T15:48:17.937Z,96461.52
2018-07-20T15:53:38.363Z,96468.94
2018-07-20T15:58:07.089Z,96465.75
2018-07-20T16:03:01.851Z,96473.71
2018-07-20T16:07:56.448Z,96471.05
2018-07-20T16:12:51.003Z,96467.08
2018-07-20T16:17:45.713Z,96466.39
2018-07-20T16:22:40.320Z,96463.20
2018-07-20T16:27:34.849Z,96466.80
2018-07-20T16:32:31.013Z,96465.11
2018-07-20T16:37:25.625Z,96457.41
2018-07-20T16:42:20.168Z,96462.77
2018-07-20T16:47:14.748Z,96463.72
2018-07-20T16:52:09.581Z,96466.59
2018-07-20T16:57:04.203Z,96476.36
2018-07-20T17:01:58.848Z,96481.73
2018-07-20T17:06:53.478Z,96493.73
2018-07-20T17:11:48.025Z,96494.30
2018-07-20T17:16:42.794Z,96493.24
2018-07-20T17:21:37.389Z,96501.23
2018-07-20T17:26:31.928Z,96507.44
2018-07-20T17:31:26.501Z,96507.90
2018-07-20T17:36:21.061Z,96508.98
2018-07-20T17:41:15.789Z,96515.05
2018-07-20T17:46:10.371Z,96508.98
2018-07-20T17:51:05.005Z,96520.24
2018-07-20T17:55:59.698Z,96529.55
2018-07-20T18:00:54.285Z,96537.50
2018-07-20T18:05:48.816Z,96532.78
2018-07-20T18:10:43.424Z,96542.67
2018-07-20T18:15:38.112Z,96540.07
2018-07-20T18:20:32.686Z,96531.03
2018-07-20T18:25:27.327Z,96538.72
2018-07-20T18:30:21.916Z,96542.66
2018-07-20T18:35:16.534Z,96552.68
2018-07-20T18:40:11.217Z,96551.36
2018-07-20T18:45:06.461Z,96542.48
2018-07-20T18:50:00.996Z,96539.41
2018-07-20T18:54:55.562Z,96536.27
2018-07-20T18:59:50.448Z,96525.56
2018-07-20T19:04:45.193Z,96536.79
2018-07-20T19:09:39.765Z,96535.96
2018-07-20T19:14:34.290Z,96532.05
2018-07-20T19:19:29.051Z,96528.88
2018-07-20T19:24:23.597Z,96536.98
2018-07-20T19:29:18.169Z,96544.92
2018-07-20T19:34:12.789Z,96553.92
2018-07-20T19:39:10.254Z,96554.20
2018-07-20T19:44:04.806Z,96568.80
2018-07-20T19:48:59.340Z,96566.55
2018-07-20T19:53:54.006Z,96570.77
2018-07-20T19:58:48.783Z,96575.15
2018-07-20T20:03:43.483Z,96590.83
2018-07-20T20:08:38.110Z,96590.65
2018-07-20T20:13:32.718Z,96579.16
2018-07-20T20:18:27.402Z,96571.47
2018-07-20T20:23:21.997Z,96582.72
2018-07-20T20:28:16.582Z,96586.67
2018-07-20T20:33:11.338Z,96594.19
2018-07-20T20:38:06.138Z,96594.75
2018-07-20T20:43:00.768Z,96590.56
2018-07-20T20:47:55.337Z,96594.06
2018-07-20T20:52:49.982Z,96600.35
2018-07-20T20:57:44.527Z,96589.70
2018-07-20T21:02:39.154Z,96599.84
2018-07-20T21:07:33.686Z,96604.25
2018-07-20T21:12:28.345Z,96600.93
2018-07-20T21:17:22.847Z,96595.55
2018-07-20T21:22:17.770Z,96597.58
2018-07-20T21:27:12.013Z,96597.55
2018-07-20T21:32:06.790Z,96596.13
2018-07-20T21:37:01.024Z,96597.28
2018-07-20T21:41:55.617Z,96611.48
2018-07-20T21:46:50.232Z,96606.30
2018-07-20T21:51:44.771Z,96601.86
2018-07-20T21:56:39.353Z,96613.75
2018-07-20T22:01:33.946Z,96610.08
2018-07-20T22:06:28.510Z,96608.41
2018-07-20T22:11:23.100Z,96616.10
2018-07-20T22:16:17.736Z,96610.38
2018-07-20T22:21:12.068Z,96613.96
2018-07-20T22:26:06.755Z,96610.23
2018-07-20T22:31:00.984Z,96598.20
2018-07-20T22:35:55.488Z,96609.02
2018-07-20T22:40:50.026Z,96615.36
2018-07-20T22:45:44.591Z,96609.59
2018-07-20T22:50:39.152Z,96608.70
2018-07-20T22:55:33.675Z,96611.54
2018-07-20T23:00:28.249Z,96616.14
2018-07-20T23:05:23.076Z,96604.98
2018-07-20T23:10:17.868Z,96602.06
2018-07-20T23:15:12.401Z,96607.56
2018-07-20T23:20:06.614Z,96605.73
2018-07-20T23:25:01.166Z,96599.36
2018-07-20T23:29:55.693Z,96605.37
2018-07-20T23:34:50.264Z,96599.36
2018-07-20T23:39:44.801Z,96597.21
2018-07-20T23:44:39.358Z,96599.69
2018-07-20T23:49:33.897Z,96589.11
2018-07-20T23:54:28.402Z,96588.78
2018-07-20T23:59:23.150Z,96576.80
